sensor_id;sensor_type;location;lat;lon;timestamp;pressure;altitude;pressure_sealevel;temperature;humidity
18500;BME280;9379;52.134;11.576;2022-07-22T00:01:08;101104.78;;;23.46;85.83
18500;BME280;9379;52.134;11.576;2022-07-22T00:03:35;101115.88;;;23.84;84.89
18500;BME280;9379;52.134;11.576;2022-07-22T00:06:04;101101.91;;;23.88;84.09
18500;BME280;9379;52.134;11.576;2022-07-22T00:08:31;101118.19;;;23.68;84.40
18500;BME280;9379;52.134;11.576;2022-07-22T00:10:58;101107.47;;;23.26;86.28
18500;BME280;9379;52.134;11.576;2022-07-22T00:13:25;101108.97;;;23.29;86.22
18500;BME280;9379;52.134;11.576;2022-07-22T00:15:52;101114.44;;;23.62;85.22
18500;BME280;9379;52.134;11.576;2022-07-22T00:18:18;101108.34;;;24.00;83.12
18500;BME280;9379;52.134;11.576;2022-07-22T00:20:45;101119.81;;;24.15;82.56
18500;BME280;9379;52.134;11.576;2022-07-22T00:23:13;101121.66;;;24.41;81.53
18500;BME280;9379;52.134;11.576;2022-07-22T00:25:40;101125.03;;;23.31;85.60
18500;BME280;9379;52.134;11.576;2022-07-22T00:28:07;101108.75;;;23.44;84.38
18500;BME280;9379;52.134;11.576;2022-07-22T00:30:34;101105.66;;;23.80;83.41
18500;BME280;9379;52.134;11.576;2022-07-22T00:33:01;101111.88;;;23.27;85.31
18500;BME280;9379;52.134;11.576;2022-07-22T00:35:28;101105.63;;;23.27;85.15
18500;BME280;9379;52.134;11.576;2022-07-22T00:37:54;101121.47;;;23.43;84.67
18500;BME280;9379;52.134;11.576;2022-07-22T00:40:23;101117.56;;;23.85;83.18
18500;BME280;9379;52.134;11.576;2022-07-22T00:42:50;101109.19;;;23.80;82.41
18500;BME280;9379;52.134;11.576;2022-07-22T00:45:18;101116.72;;;23.78;82.90
18500;BME280;9379;52.134;11.576;2022-07-22T00:47:45;101117.56;;;23.79;83.02
18500;BME280;9379;52.134;11.576;2022-07-22T00:50:12;101106.81;;;23.11;85.56
18500;BME280;9379;52.134;11.576;2022-07-22T00:52:41;101110.25;;;23.66;83.80
18500;BME280;9379;52.134;11.576;2022-07-22T00:55:08;101108.34;;;24.13;81.25
18500;BME280;9379;52.134;11.576;2022-07-22T00:57:37;101111.47;;;23.57;83.22
18500;BME280;9379;52.134;11.576;2022-07-22T01:00:06;101108.97;;;23.95;81.92
18500;BME280;9379;52.134;11.576;2022-07-22T01:02:34;101110.88;;;23.68;83.03
18500;BME280;9379;52.134;11.576;2022-07-22T01:05:01;101109.41;;;23.59;83.60
18500;BME280;9379;52.134;11.576;2022-07-22T01:07:28;101115.91;;;23.65;83.46
18500;BME280;9379;52.134;11.576;2022-07-22T01:09:54;101110.84;;;23.55;83.77
18500;BME280;9379;52.134;11.576;2022-07-22T01:12:21;101117.88;;;23.10;85.34
18500;BME280;9379;52.134;11.576;2022-07-22T01:14:49;101117.09;;;23.29;84.54
18500;BME280;9379;52.134;11.576;2022-07-22T01:17:16;101115.19;;;23.36;84.46
18500;BME280;9379;52.134;11.576;2022-07-22T01:19:43;101121.88;;;23.34;84.47
18500;BME280;9379;52.134;11.576;2022-07-22T01:22:12;101115.34;;;22.95;86.05
18500;BME280;9379;52.134;11.576;2022-07-22T01:24:38;101117.09;;;23.29;84.94
18500;BME280;9379;52.134;11.576;2022-07-22T01:27:05;101111.50;;;23.83;82.52
18500;BME280;9379;52.134;11.576;2022-07-22T01:29:32;101099.31;;;23.07;84.77
18500;BME280;9379;52.134;11.576;2022-07-22T01:31:59;101101.84;;;23.48;82.84
18500;BME280;9379;52.134;11.576;2022-07-22T01:34:26;101117.75;;;23.71;83.12
18500;BME280;9379;52.134;11.576;2022-07-22T01:36:53;101120.63;;;23.36;84.00
18500;BME280;9379;52.134;11.576;2022-07-22T01:39:25;101113.53;;;23.35;84.28
18500;BME280;9379;52.134;11.576;2022-07-22T01:41:52;101086.22;;;23.43;83.78
18500;BME280;9379;52.134;11.576;2022-07-22T01:44:19;101105.25;;;23.63;82.64
18500;BME280;9379;52.134;11.576;2022-07-22T01:46:46;101089.97;;;23.29;83.60
18500;BME280;9379;52.134;11.576;2022-07-22T01:49:13;101111.50;;;23.50;83.69
18500;BME280;9379;52.134;11.576;2022-07-22T01:51:42;101109.72;;;22.96;85.57
18500;BME280;9379;52.134;11.576;2022-07-22T01:54:08;101098.09;;;23.22;84.57
18500;BME280;9379;52.134;11.576;2022-07-22T01:56:37;101101.63;;;23.23;84.06
18500;BME280;9379;52.134;11.576;2022-07-22T01:59:04;101098.28;;;23.21;84.52
18500;BME280;9379;52.134;11.576;2022-07-22T02:01:30;101109.75;;;23.23;84.51
18500;BME280;9379;52.134;11.576;2022-07-22T02:03:57;101105.94;;;22.84;85.47
18500;BME280;9379;52.134;11.576;2022-07-22T02:06:24;101110.78;;;23.09;85.74
18500;BME280;9379;52.134;11.576;2022-07-22T02:08:51;101082.75;;;22.82;86.08
18500;BME280;9379;52.134;11.576;2022-07-22T02:11:18;101096.34;;;22.88;85.86
18500;BME280;9379;52.134;11.576;2022-07-22T02:13:46;101116.03;;;23.23;84.89
18500;BME280;9379;52.134;11.576;2022-07-22T02:16:13;101111.44;;;23.24;84.85
18500;BME280;9379;52.134;11.576;2022-07-22T02:18:40;101115.38;;;23.08;85.34
18500;BME280;9379;52.134;11.576;2022-07-22T02:21:06;101110.41;;;23.32;84.93
18500;BME280;9379;52.134;11.576;2022-07-22T02:23:33;101103.97;;;23.52;83.80
18500;BME280;9379;52.134;11.576;2022-07-22T02:26:00;101107.31;;;23.61;83.14
18500;BME280;9379;52.134;11.576;2022-07-22T02:28:27;101107.63;;;22.98;85.43
18500;BME280;9379;52.134;11.576;2022-07-22T02:30:55;101103.31;;;23.17;84.58
18500;BME280;9379;52.134;11.576;2022-07-22T02:33:22;101106.41;;;23.14;84.70
18500;BME280;9379;52.134;11.576;2022-07-22T02:35:49;101089.94;;;23.16;84.40
18500;BME280;9379;52.134;11.576;2022-07-22T02:38:17;101112.50;;;23.43;83.85
18500;BME280;9379;52.134;11.576;2022-07-22T02:40:44;101114.59;;;23.27;84.27
18500;BME280;9379;52.134;11.576;2022-07-22T02:43:11;101097.50;;;23.40;83.42
18500;BME280;9379;52.134;11.576;2022-07-22T02:45:38;101115.34;;;22.95;85.07
18500;BME280;9379;52.134;11.576;2022-07-22T02:48:06;101102.88;;;23.20;84.64
18500;BME280;9379;52.134;11.576;2022-07-22T02:50:34;101108.94;;;23.16;85.38
18500;BME280;9379;52.134;11.576;2022-07-22T02:53:02;101110.19;;;23.20;83.99
18500;BME280;9379;52.134;11.576;2022-07-22T02:55:28;101104.13;;;23.24;84.65
18500;BME280;9379;52.134;11.576;2022-07-22T02:57:55;101101.72;;;23.63;82.99
18500;BME280;9379;52.134;11.576;2022-07-22T03:00:22;101107.69;;;23.38;83.18
18500;BME280;9379;52.134;11.576;2022-07-22T03:02:49;101107.50;;;23.40;83.22
18500;BME280;9379;52.134;11.576;2022-07-22T03:05:17;101115.22;;;23.29;83.55
18500;BME280;9379;52.134;11.576;2022-07-22T03:07:44;101117.66;;;23.05;85.04
18500;BME280;9379;52.134;11.576;2022-07-22T03:10:11;101113.22;;;22.90;85.38
18500;BME280;9379;52.134;11.576;2022-07-22T03:12:38;101118.97;;;23.42;83.07
18500;BME280;9379;52.134;11.576;2022-07-22T03:15:05;101111.06;;;23.53;82.13
18500;BME280;9379;52.134;11.576;2022-07-22T03:17:33;101113.63;;;22.87;84.73
18500;BME280;9379;52.134;11.576;2022-07-22T03:20:01;101108.47;;;22.51;86.44
18500;BME280;9379;52.134;11.576;2022-07-22T03:22:29;101109.13;;;23.14;84.13
18500;BME280;9379;52.134;11.576;2022-07-22T03:24:56;101113.63;;;22.87;85.44
18500;BME280;9379;52.134;11.576;2022-07-22T03:27:23;101114.59;;;23.27;83.30
18500;BME280;9379;52.134;11.576;2022-07-22T03:29:50;101112.09;;;22.71;85.45
18500;BME280;9379;52.134;11.576;2022-07-22T03:32:17;101108.91;;;23.09;84.02
18500;BME280;9379;52.134;11.576;2022-07-22T03:34:44;101097.25;;;22.61;85.37
18500;BME280;9379;52.134;11.576;2022-07-22T03:37:13;101092.44;;;23.11;83.60
18500;BME280;9379;52.134;11.576;2022-07-22T03:39:42;101087.88;;;23.31;82.92
18500;BME280;9379;52.134;11.576;2022-07-22T03:42:09;101119.56;;;23.24;83.94
18500;BME280;9379;52.134;11.576;2022-07-22T03:44:36;101101.53;;;22.90;83.98
18500;BME280;9379;52.134;11.576;2022-07-22T03:47:03;101084.31;;;22.56;85.03
18500;BME280;9379;52.134;11.576;2022-07-22T03:49:31;101095.59;;;22.66;85.42
18500;BME280;9379;52.134;11.576;2022-07-22T03:52:03;101063.66;;;22.55;85.39
18500;BME280;9379;52.134;11.576;2022-07-22T03:54:31;101076.88;;;22.24;86.50
18500;BME280;9379;52.134;11.576;2022-07-22T03:57:00;101084.19;;;22.78;84.72
18500;BME280;9379;52.134;11.576;2022-07-22T03:59:26;101080.16;;;23.28;82.69
18500;BME280;9379;52.134;11.576;2022-07-22T04:01:53;101092.47;;;22.63;85.18
18500;BME280;9379;52.134;11.576;2022-07-22T04:04:20;101074.78;;;22.80;84.39
18500;BME280;9379;52.134;11.576;2022-07-22T04:06:47;101070.09;;;23.15;83.11
18500;BME280;9379;52.134;11.576;2022-07-22T04:09:16;101066.09;;;22.85;83.88
18500;BME280;9379;52.134;11.576;2022-07-22T04:11:43;101078.38;;;22.81;84.41
18500;BME280;9379;52.134;11.576;2022-07-22T04:14:11;101101.28;;;22.78;84.93
18500;BME280;9379;52.134;11.576;2022-07-22T04:16:39;101108.03;;;23.02;84.56
18500;BME280;9379;52.134;11.576;2022-07-22T04:19:06;101104.53;;;23.15;83.30
18500;BME280;9379;52.134;11.576;2022-07-22T04:21:33;101077.09;;;22.70;84.42
18500;BME280;9379;52.134;11.576;2022-07-22T04:24:00;101081.47;;;22.71;84.77
18500;BME280;9379;52.134;11.576;2022-07-22T04:26:30;101103.06;;;23.06;83.95
18500;BME280;9379;52.134;11.576;2022-07-22T04:28:57;101118.47;;;22.98;84.01
18500;BME280;9379;52.134;11.576;2022-07-22T04:31:25;101107.47;;;23.26;82.84
18500;BME280;9379;52.134;11.576;2022-07-22T04:33:52;101095.31;;;23.03;83.39
18500;BME280;9379;52.134;11.576;2022-07-22T04:36:19;101088.88;;;23.10;83.02
18500;BME280;9379;52.134;11.576;2022-07-22T04:38:49;101129.72;;;23.02;84.23
18500;BME280;9379;52.134;11.576;2022-07-22T04:41:17;101114.50;;;22.94;84.50
18500;BME280;9379;52.134;11.576;2022-07-22T04:43:44;101125.47;;;23.41;82.81
18500;BME280;9379;52.134;11.576;2022-07-22T04:46:11;101126.81;;;23.04;84.21
18500;BME280;9379;52.134;11.576;2022-07-22T04:48:39;101134.13;;;22.96;85.03
18500;BME280;9379;52.134;11.576;2022-07-22T04:51:06;101107.50;;;23.33;83.27
18500;BME280;9379;52.134;11.576;2022-07-22T04:53:33;101125.00;;;23.37;83.14
18500;BME280;9379;52.134;11.576;2022-07-22T04:56:00;101134.16;;;23.10;84.87
18500;BME280;9379;52.134;11.576;2022-07-22T04:58:26;101138.88;;;23.62;82.82
18500;BME280;9379;52.134;11.576;2022-07-22T05:00:53;101130.69;;;23.55;82.86
18500;BME280;9379;52.134;11.576;2022-07-22T05:03:21;101101.03;;;23.54;82.58
18500;BME280;9379;52.134;11.576;2022-07-22T05:05:51;101124.88;;;23.98;80.90
18500;BME280;9379;52.134;11.576;2022-07-22T05:08:18;101125.47;;;24.00;81.04
18500;BME280;9379;52.134;11.576;2022-07-22T05:10:45;101132.09;;;23.38;83.76
18500;BME280;9379;52.134;11.576;2022-07-22T05:13:12;101127.75;;;23.44;83.18
18500;BME280;9379;52.134;11.576;2022-07-22T05:31:47;101101.25;;;23.72;81.43
18500;BME280;9379;52.134;11.576;2022-07-22T05:49:17;101144.06;;;24.10;81.41
18500;BME280;9379;52.134;11.576;2022-07-22T05:51:45;101144.91;;;24.04;82.11
18500;BME280;9379;52.134;11.576;2022-07-22T05:54:11;101157.44;;;23.65;84.23
18500;BME280;9379;52.134;11.576;2022-07-22T05:56:38;101162.19;;;23.56;84.37
18500;BME280;9379;52.134;11.576;2022-07-22T05:59:05;101154.63;;;23.25;85.40
18500;BME280;9379;52.134;11.576;2022-07-22T06:01:31;101167.53;;;23.10;86.75
18500;BME280;9379;52.134;11.576;2022-07-22T06:03:58;101170.44;;;23.15;87.19
18500;BME280;9379;52.134;11.576;2022-07-22T06:06:26;101148.97;;;23.07;86.65
18500;BME280;9379;52.134;11.576;2022-07-22T06:08:53;101145.66;;;22.70;88.70
18500;BME280;9379;52.134;11.576;2022-07-22T06:11:20;101168.16;;;22.71;88.93
18500;BME280;9379;52.134;11.576;2022-07-22T06:13:47;101175.06;;;23.21;87.10
18500;BME280;9379;52.134;11.576;2022-07-22T06:16:13;101162.06;;;23.04;87.42
18500;BME280;9379;52.134;11.576;2022-07-22T06:18:40;101164.28;;;23.54;85.43
18500;BME280;9379;52.134;11.576;2022-07-22T06:21:07;101184.63;;;23.11;87.34
18500;BME280;9379;52.134;11.576;2022-07-22T06:23:35;101183.22;;;23.35;86.74
18500;BME280;9379;52.134;11.576;2022-07-22T06:26:02;101185.81;;;23.69;85.33
18500;BME280;9379;52.134;11.576;2022-07-22T06:28:29;101182.91;;;23.71;85.51
18500;BME280;9379;52.134;11.576;2022-07-22T06:30:55;101193.31;;;23.61;86.13
18500;BME280;9379;52.134;11.576;2022-07-22T06:33:22;101188.69;;;23.41;87.12
18500;BME280;9379;52.134;11.576;2022-07-22T06:35:49;101186.47;;;23.65;86.05
18500;BME280;9379;52.134;11.576;2022-07-22T06:38:15;101194.63;;;23.10;88.40
18500;BME280;9379;52.134;11.576;2022-07-22T06:40:45;101194.97;;;23.55;86.00
18500;BME280;9379;52.134;11.576;2022-07-22T06:43:11;101191.66;;;23.73;85.90
18500;BME280;9379;52.134;11.576;2022-07-22T06:45:38;101195.00;;;23.62;86.67
18500;BME280;9379;52.134;11.576;2022-07-22T06:48:05;101185.56;;;23.44;87.03
18500;BME280;9379;52.134;11.576;2022-07-22T06:50:32;101189.59;;;23.68;85.96
18500;BME280;9379;52.134;11.576;2022-07-22T06:52:58;101195.97;;;23.47;85.04
18500;BME280;9379;52.134;11.576;2022-07-22T06:55:25;101192.31;;;23.88;83.56
18500;BME280;9379;52.134;11.576;2022-07-22T06:57:53;101177.22;;;23.39;84.84
18500;BME280;9379;52.134;11.576;2022-07-22T07:00:20;101180.53;;;23.28;84.27
18500;BME280;9379;52.134;11.576;2022-07-22T07:02:47;101192.28;;;23.62;82.85
18500;BME280;9379;52.134;11.576;2022-07-22T07:05:14;101207.97;;;23.79;82.65
18500;BME280;9379;52.134;11.576;2022-07-22T07:07:40;101204.00;;;23.62;83.30
18500;BME280;9379;52.134;11.576;2022-07-22T07:10:08;101208.31;;;23.43;84.29
18500;BME280;9379;52.134;11.576;2022-07-22T07:12:36;101202.50;;;23.60;83.44
18500;BME280;9379;52.134;11.576;2022-07-22T07:15:05;101204.59;;;22.62;87.41
18500;BME280;9379;52.134;11.576;2022-07-22T07:17:32;101205.19;;;23.53;84.16
18500;BME280;9379;52.134;11.576;2022-07-22T07:19:59;101206.81;;;23.34;84.75
18500;BME280;9379;52.134;11.576;2022-07-22T07:22:26;101213.16;;;22.65;86.91
18500;BME280;9379;52.134;11.576;2022-07-22T07:24:52;101209.53;;;22.52;87.53
18500;BME280;9379;52.134;11.576;2022-07-22T07:27:19;101194.09;;;23.28;84.92
18500;BME280;9379;52.134;11.576;2022-07-22T07:29:46;101221.28;;;23.54;83.54
18500;BME280;9379;52.134;11.576;2022-07-22T07:32:14;101198.56;;;23.69;82.55
18500;BME280;9379;52.134;11.576;2022-07-22T07:34:40;101216.97;;;24.13;81.58
18500;BME280;9379;52.134;11.576;2022-07-22T07:37:07;101211.19;;;23.35;83.65
18500;BME280;9379;52.134;11.576;2022-07-22T07:39:34;101217.66;;;23.27;83.45
18500;BME280;9379;52.134;11.576;2022-07-22T07:42:00;101217.31;;;23.57;82.57
18500;BME280;9379;52.134;11.576;2022-07-22T07:44:27;101217.91;;;22.91;83.26
18500;BME280;9379;52.134;11.576;2022-07-22T07:46:54;101222.47;;;23.32;82.04
18500;BME280;9379;52.134;11.576;2022-07-22T07:49:22;101223.88;;;24.02;79.37
18500;BME280;9379;52.134;11.576;2022-07-22T07:51:49;101223.66;;;24.10;79.75
18500;BME280;9379;52.134;11.576;2022-07-22T07:54:17;101207.78;;;24.47;78.23
18500;BME280;9379;52.134;11.576;2022-07-22T07:56:43;101206.72;;;23.69;78.33
18500;BME280;9379;52.134;11.576;2022-07-22T07:59:10;101215.94;;;24.34;77.23
18500;BME280;9379;52.134;11.576;2022-07-22T08:01:37;101227.81;;;24.26;75.77
18500;BME280;9379;52.134;11.576;2022-07-22T08:04:04;101222.53;;;23.52;76.77
18500;BME280;9379;52.134;11.576;2022-07-22T08:06:32;101234.59;;;23.49;77.24
18500;BME280;9379;52.134;11.576;2022-07-22T08:08:59;101221.97;;;23.90;75.80
18500;BME280;9379;52.134;11.576;2022-07-22T08:11:26;101226.72;;;23.61;75.67
18500;BME280;9379;52.134;11.576;2022-07-22T08:13:52;101203.78;;;23.70;75.67
18500;BME280;9379;52.134;11.576;2022-07-22T08:16:19;101234.91;;;23.74;76.38
18500;BME280;9379;52.134;11.576;2022-07-22T08:18:46;101233.66;;;23.64;76.54
18500;BME280;9379;52.134;11.576;2022-07-22T08:21:13;101235.38;;;24.37;74.65
18500;BME280;9379;52.134;11.576;2022-07-22T08:23:42;101226.97;;;24.59;73.84
18500;BME280;9379;52.134;11.576;2022-07-22T08:26:09;101221.72;;;24.70;74.73
18500;BME280;9379;52.134;11.576;2022-07-22T08:28:36;101233.25;;;24.53;75.15
18500;BME280;9379;52.134;11.576;2022-07-22T08:31:03;101235.78;;;24.41;76.15
18500;BME280;9379;52.134;11.576;2022-07-22T08:33:29;101234.91;;;24.67;74.93
18500;BME280;9379;52.134;11.576;2022-07-22T08:35:56;101236.50;;;24.88;74.66
18500;BME280;9379;52.134;11.576;2022-07-22T08:38:23;101231.72;;;24.83;73.99
18500;BME280;9379;52.134;11.576;2022-07-22T08:40:53;101245.75;;;24.80;74.39
18500;BME280;9379;52.134;11.576;2022-07-22T08:43:21;101247.84;;;24.78;74.34
18500;BME280;9379;52.134;11.576;2022-07-22T08:45:48;101246.13;;;25.04;73.23
18500;BME280;9379;52.134;11.576;2022-07-22T08:48:15;101233.47;;;24.18;74.83
18500;BME280;9379;52.134;11.576;2022-07-22T08:53:45;101235.97;;;24.53;73.38
18500;BME280;9379;52.134;11.576;2022-07-22T08:56:13;101238.72;;;24.46;73.11
18500;BME280;9379;52.134;11.576;2022-07-22T08:58:40;101244.56;;;24.56;72.47
18500;BME280;9379;52.134;11.576;2022-07-22T09:01:09;101250.84;;;24.43;73.51
18500;BME280;9379;52.134;11.576;2022-07-22T09:03:44;101247.66;;;23.94;73.82
18500;BME280;9379;52.134;11.576;2022-07-22T09:06:12;101244.09;;;23.93;74.77
18500;BME280;9379;52.134;11.576;2022-07-22T09:08:53;101240.16;;;24.55;72.01
18500;BME280;9379;52.134;11.576;2022-07-22T09:11:22;101242.88;;;24.15;72.28
18500;BME280;9379;52.134;11.576;2022-07-22T09:13:50;101239.13;;;23.97;72.07
18500;BME280;9379;52.134;11.576;2022-07-22T09:16:17;101245.56;;;23.76;72.57
18500;BME280;9379;52.134;11.576;2022-07-22T09:19:03;101244.16;;;24.20;72.53
18500;BME280;9379;52.134;11.576;2022-07-22T09:21:30;101248.28;;;24.62;71.70
18500;BME280;9379;52.134;11.576;2022-07-22T09:23:57;101235.25;;;25.04;70.13
18500;BME280;9379;52.134;11.576;2022-07-22T09:26:33;101244.34;;;24.58;71.61
18500;BME280;9379;52.134;11.576;2022-07-22T09:29:00;101236.16;;;25.36;69.64
18500;BME280;9379;52.134;11.576;2022-07-22T09:31:29;101248.50;;;24.60;70.49
18500;BME280;9379;52.134;11.576;2022-07-22T09:33:57;101246.22;;;24.51;71.39
18500;BME280;9379;52.134;11.576;2022-07-22T09:36:24;101246.63;;;25.32;70.40
18500;BME280;9379;52.134;11.576;2022-07-22T09:38:51;101220.84;;;24.90;70.05
18500;BME280;9379;52.134;11.576;2022-07-22T09:41:18;101249.47;;;25.88;68.53
18500;BME280;9379;52.134;11.576;2022-07-22T09:43:46;101244.13;;;26.00;68.12
18500;BME280;9379;52.134;11.576;2022-07-22T09:46:13;101252.38;;;26.18;67.15
18500;BME280;9379;52.134;11.576;2022-07-22T09:48:40;101239.78;;;25.61;67.75
18500;BME280;9379;52.134;11.576;2022-07-22T09:51:08;101249.56;;;25.75;68.23
18500;BME280;9379;52.134;11.576;2022-07-22T09:53:35;101247.53;;;26.21;67.11
18500;BME280;9379;52.134;11.576;2022-07-22T09:56:04;101256.09;;;26.24;66.09
18500;BME280;9379;52.134;11.576;2022-07-22T09:58:31;101248.41;;;26.14;66.74
18500;BME280;9379;52.134;11.576;2022-07-22T10:01:03;101262.28;;;26.38;65.59
18500;BME280;9379;52.134;11.576;2022-07-22T10:03:31;101267.06;;;24.90;68.26
18500;BME280;9379;52.134;11.576;2022-07-22T10:06:00;101262.00;;;25.07;69.88
18500;BME280;9379;52.134;11.576;2022-07-22T10:08:30;101276.31;;;24.62;71.20
18500;BME280;9379;52.134;11.576;2022-07-22T10:10:59;101262.91;;;24.81;69.27
18500;BME280;9379;52.134;11.576;2022-07-22T10:13:26;101264.63;;;24.49;70.21
18500;BME280;9379;52.134;11.576;2022-07-22T10:15:55;101254.41;;;25.22;69.09
18500;BME280;9379;52.134;11.576;2022-07-22T10:18:24;101265.78;;;25.06;68.94
18500;BME280;9379;52.134;11.576;2022-07-22T10:21:01;101268.78;;;24.78;69.93
18500;BME280;9379;52.134;11.576;2022-07-22T10:23:28;101261.03;;;25.39;68.05
18500;BME280;9379;52.134;11.576;2022-07-22T10:26:22;101254.63;;;25.27;68.45
18500;BME280;9379;52.134;11.576;2022-07-22T10:31:44;101260.13;;;25.07;70.24
18500;BME280;9379;52.134;11.576;2022-07-22T10:34:12;101253.47;;;24.83;69.07
18500;BME280;9379;52.134;11.576;2022-07-22T10:36:39;101259.78;;;24.64;69.82
18500;BME280;9379;52.134;11.576;2022-07-22T10:39:09;101255.97;;;25.49;68.55
18500;BME280;9379;52.134;11.576;2022-07-22T10:41:38;101256.50;;;25.65;67.51
18500;BME280;9379;52.134;11.576;2022-07-22T10:44:06;101258.28;;;25.46;68.13
18500;BME280;9379;52.134;11.576;2022-07-22T10:46:50;101250.94;;;25.46;68.09
18500;BME280;9379;52.134;11.576;2022-07-22T10:49:20;101244.28;;;25.42;68.73
18500;BME280;9379;52.134;11.576;2022-07-22T10:52:09;101251.53;;;25.10;68.82
18500;BME280;9379;52.134;11.576;2022-07-22T10:57:37;101236.25;;;25.16;67.78
18500;BME280;9379;52.134;11.576;2022-07-22T11:00:05;101241.28;;;25.88;66.69
18500;BME280;9379;52.134;11.576;2022-07-22T11:02:33;101228.63;;;25.69;67.28
18500;BME280;9379;52.134;11.576;2022-07-22T11:05:01;101226.69;;;25.83;66.79
18500;BME280;9379;52.134;11.576;2022-07-22T11:07:29;101246.56;;;25.45;67.13
18500;BME280;9379;52.134;11.576;2022-07-22T11:10:08;101239.13;;;25.72;66.81
18500;BME280;9379;52.134;11.576;2022-07-22T11:12:35;101237.47;;;26.21;66.36
18500;BME280;9379;52.134;11.576;2022-07-22T11:15:03;101231.31;;;25.76;67.10
18500;BME280;9379;52.134;11.576;2022-07-22T11:17:31;101238.88;;;25.67;67.15
18500;BME280;9379;52.134;11.576;2022-07-22T11:20:00;101232.44;;;25.93;66.18
18500;BME280;9379;52.134;11.576;2022-07-22T11:22:28;101234.72;;;25.26;67.47
18500;BME280;9379;52.134;11.576;2022-07-22T11:24:56;101218.97;;;24.84;68.03
18500;BME280;9379;52.134;11.576;2022-07-22T11:27:23;101237.63;;;26.01;65.74
18500;BME280;9379;52.134;11.576;2022-07-22T11:29:52;101241.63;;;25.99;66.16
18500;BME280;9379;52.134;11.576;2022-07-22T11:32:19;101226.59;;;25.58;66.75
18500;BME280;9379;52.134;11.576;2022-07-22T11:34:47;101241.19;;;26.27;65.65
18500;BME280;9379;52.134;11.576;2022-07-22T11:37:14;101239.38;;;26.21;65.21
18500;BME280;9379;52.134;11.576;2022-07-22T11:39:42;101236.75;;;26.07;65.69
18500;BME280;9379;52.134;11.576;2022-07-22T11:42:09;101234.91;;;26.01;65.28
18500;BME280;9379;52.134;11.576;2022-07-22T11:44:37;101232.25;;;25.56;65.86
18500;BME280;9379;52.134;11.576;2022-07-22T11:47:06;101236.94;;;25.81;65.71
18500;BME280;9379;52.134;11.576;2022-07-22T11:49:34;101222.63;;;25.54;66.48
18500;BME280;9379;52.134;11.576;2022-07-22T11:52:04;101239.59;;;25.56;66.49
18500;BME280;9379;52.134;11.576;2022-07-22T11:54:33;101234.59;;;25.08;66.99
18500;BME280;9379;52.134;11.576;2022-07-22T11:57:02;101244.16;;;25.24;68.16
18500;BME280;9379;52.134;11.576;2022-07-22T11:59:29;101213.81;;;25.20;67.03
18500;BME280;9379;52.134;11.576;2022-07-22T12:01:56;101211.81;;;25.02;67.76
18500;BME280;9379;52.134;11.576;2022-07-22T12:04:24;101210.03;;;25.21;66.61
18500;BME280;9379;52.134;11.576;2022-07-22T12:06:53;101207.63;;;25.83;65.55
18500;BME280;9379;52.134;11.576;2022-07-22T12:09:22;101217.19;;;26.17;65.17
18500;BME280;9379;52.134;11.576;2022-07-22T12:11:50;101200.38;;;25.64;64.85
18500;BME280;9379;52.134;11.576;2022-07-22T12:14:21;101211.22;;;26.02;63.91
18500;BME280;9379;52.134;11.576;2022-07-22T12:16:55;101208.38;;;27.01;62.59
18500;BME280;9379;52.134;11.576;2022-07-22T12:19:23;101201.38;;;27.06;62.41
18500;BME280;9379;52.134;11.576;2022-07-22T12:21:51;101234.84;;;26.58;62.39
18500;BME280;9379;52.134;11.576;2022-07-22T12:24:26;101223.78;;;25.78;64.89
18500;BME280;9379;52.134;11.576;2022-07-22T12:26:55;101201.56;;;26.06;63.99
18500;BME280;9379;52.134;11.576;2022-07-22T12:29:25;101197.88;;;26.43;63.29
18500;BME280;9379;52.134;11.576;2022-07-22T12:31:54;101209.41;;;26.82;63.49
18500;BME280;9379;52.134;11.576;2022-07-22T12:34:33;101225.19;;;26.12;64.63
18500;BME280;9379;52.134;11.576;2022-07-22T12:37:11;101212.84;;;25.84;65.17
18500;BME280;9379;52.134;11.576;2022-07-22T12:39:38;101211.84;;;25.41;65.64
18500;BME280;9379;52.134;11.576;2022-07-22T12:42:17;101211.75;;;25.54;65.30
18500;BME280;9379;52.134;11.576;2022-07-22T12:45:01;101231.56;;;25.74;65.09
18500;BME280;9379;52.134;11.576;2022-07-22T12:47:48;101215.81;;;25.76;65.28
18500;BME280;9379;52.134;11.576;2022-07-22T12:50:24;101189.03;;;27.03;61.83
18500;BME280;9379;52.134;11.576;2022-07-22T12:52:53;101211.66;;;26.85;61.88
18500;BME280;9379;52.134;11.576;2022-07-22T12:55:20;101189.94;;;28.22;59.88
18500;BME280;9379;52.134;11.576;2022-07-22T12:57:47;101182.06;;;26.89;61.58
18500;BME280;9379;52.134;11.576;2022-07-22T13:00:21;101171.53;;;27.11;61.30
18500;BME280;9379;52.134;11.576;2022-07-22T13:02:48;101190.69;;;26.67;62.17
18500;BME280;9379;52.134;11.576;2022-07-22T13:05:16;101191.25;;;26.76;62.06
18500;BME280;9379;52.134;11.576;2022-07-22T13:07:43;101180.69;;;25.93;63.77
18500;BME280;9379;52.134;11.576;2022-07-22T13:10:11;101180.72;;;27.58;61.01
18500;BME280;9379;52.134;11.576;2022-07-22T13:12:39;101198.09;;;26.97;61.80
18500;BME280;9379;52.134;11.576;2022-07-22T13:15:08;101176.13;;;26.73;62.47
18500;BME280;9379;52.134;11.576;2022-07-22T13:17:37;101201.91;;;26.34;63.54
18500;BME280;9379;52.134;11.576;2022-07-22T13:20:05;101198.59;;;26.32;63.38
18500;BME280;9379;52.134;11.576;2022-07-22T13:22:32;101203.25;;;26.25;63.37
18500;BME280;9379;52.134;11.576;2022-07-22T13:24:59;101210.00;;;26.23;63.42
18500;BME280;9379;52.134;11.576;2022-07-22T13:27:26;101193.50;;;26.17;63.88
18500;BME280;9379;52.134;11.576;2022-07-22T13:29:53;101190.53;;;26.99;62.28
18500;BME280;9379;52.134;11.576;2022-07-22T13:32:20;101177.09;;;27.46;60.89
18500;BME280;9379;52.134;11.576;2022-07-22T13:34:48;101173.88;;;27.37;61.37